createdAt,value
2018-07-23T00:01:37.287Z,37.58
2018-07-23T00:04:07.351Z,40.65
2018-07-23T00:06:37.094Z,39.63
2018-07-23T00:09:07.514Z,36.73
2018-07-23T00:11:37.278Z,33.00
2018-07-23T00:14:07.000Z,37.17
2018-07-23T00:16:36.699Z,38.80
2018-07-23T00:19:06.462Z,37.33
2018-07-23T00:21:36.195Z,40.75
2018-07-23T00:24:05.895Z,39.42
2018-07-23T00:26:35.916Z,39.90
2018-07-23T00:29:05.646Z,37.65
2018-07-23T00:31:35.382Z,35.35
2018-07-23T00:34:05.151Z,39.83
2018-07-23T00:36:34.842Z,38.65
2018-07-23T00:39:07.266Z,38.78
2018-07-23T00:41:37.023Z,37.28
2018-07-23T00:44:07.045Z,39.58
2018-07-23T00:46:37.070Z,41.65
2018-07-23T00:49:07.822Z,39.20
2018-07-23T00:51:37.514Z,40.58
2018-07-23T00:54:07.809Z,38.92
2018-07-23T00:56:37.543Z,36.88
2018-07-23T00:59:07.281Z,40.28
2018-07-23T01:01:37.011Z,36.13
2018-07-23T01:04:06.752Z,36.33
2018-07-23T01:06:36.438Z,33.40
2018-07-23T01:09:09.295Z,33.08
2018-07-23T01:11:39.102Z,37.93
2018-07-23T01:14:08.986Z,38.38
2018-07-23T01:16:38.679Z,33.63
2018-07-23T01:19:08.414Z,34.60
2018-07-23T01:21:38.106Z,38.95
2018-07-23T01:24:07.854Z,36.80
2018-07-23T01:26:37.554Z,34.98
2018-07-23T01:29:06.895Z,38.08
2018-07-23T01:31:36.943Z,35.48
2018-07-23T01:34:06.668Z,35.13
2018-07-23T01:36:36.351Z,39.73
2018-07-23T01:39:07.934Z,32.88
2018-07-23T01:41:37.962Z,39.78
2018-07-23T01:44:07.679Z,36.95
2018-07-23T01:46:37.361Z,36.33
2018-07-23T01:49:07.041Z,37.88
2018-07-23T01:51:36.433Z,38.38
2018-07-23T01:54:06.103Z,34.63
2018-07-23T01:56:35.850Z,37.58
2018-07-23T01:59:05.578Z,37.15
2018-07-23T02:01:35.265Z,36.20
2018-07-23T02:04:05.018Z,36.50
2018-07-23T02:06:34.711Z,36.88
2018-07-23T02:09:07.702Z,32.80
2018-07-23T02:11:37.387Z,34.23
2018-07-23T02:14:07.583Z,35.15
2018-07-23T02:16:37.274Z,35.23
2018-07-23T02:19:07.475Z,34.43
2018-07-23T02:21:37.374Z,36.77
2018-07-23T02:24:07.438Z,35.60
2018-07-23T02:26:37.482Z,36.35
2018-07-23T02:29:07.195Z,36.83
2018-07-23T02:31:36.880Z,37.95
2018-07-23T02:34:06.636Z,38.85
2018-07-23T02:36:36.024Z,38.35
2018-07-23T02:39:08.775Z,36.20
2018-07-23T02:41:38.486Z,28.85
2018-07-23T02:44:08.599Z,34.80
2018-07-23T02:46:38.335Z,35.08
2018-07-23T02:49:08.407Z,31.10
2018-07-23T02:51:38.127Z,35.30
2018-07-23T02:54:08.221Z,33.73
2018-07-23T02:56:37.951Z,31.60
2018-07-23T02:59:07.694Z,35.00
2018-07-23T03:01:37.423Z,36.08
2018-07-23T03:04:07.507Z,35.38
2018-07-23T03:06:37.217Z,31.00
2018-07-23T03:09:07.673Z,32.33
2018-07-23T03:11:37.754Z,35.08
2018-07-23T03:14:07.851Z,35.30
2018-07-23T03:16:37.582Z,34.08
2018-07-23T03:19:07.335Z,34.48
2018-07-23T03:21:37.132Z,33.15
2018-07-23T03:24:07.035Z,31.68
2018-07-23T03:26:36.744Z,35.40
2018-07-23T03:29:06.458Z,35.40
2018-07-23T03:31:36.174Z,36.40
2018-07-23T03:34:06.202Z,33.92
2018-07-23T03:36:35.904Z,33.90
2018-07-23T03:39:08.119Z,33.28
2018-07-23T03:41:37.852Z,33.90
2018-07-23T03:44:07.951Z,34.88
2018-07-23T03:46:37.662Z,36.68
2018-07-23T03:49:07.391Z,26.73
2018-07-23T03:51:37.079Z,35.85
2018-07-23T03:54:06.834Z,36.90
2018-07-23T03:56:36.546Z,29.90
2018-07-23T03:59:06.403Z,33.75
2018-07-23T04:01:36.115Z,32.00
2018-07-23T04:04:06.221Z,37.20
2018-07-23T04:06:35.633Z,39.80
2018-07-23T04:09:08.382Z,33.38
2018-07-23T04:11:43.368Z,33.00
2018-07-23T04:14:13.386Z,31.90
2018-07-23T04:16:43.090Z,31.12
2018-07-23T04:19:13.163Z,37.23
2018-07-23T04:21:42.887Z,34.65
2018-07-23T04:24:12.612Z,35.73
2018-07-23T04:26:42.346Z,31.97
2018-07-23T04:29:12.047Z,29.55
2018-07-23T04:31:41.792Z,33.23
2018-07-23T04:34:11.860Z,30.40
2018-07-23T04:36:41.602Z,31.27
2018-07-23T04:39:11.339Z,33.33
2018-07-23T04:41:41.635Z,30.52
2018-07-23T04:44:11.343Z,27.62
2018-07-23T04:46:41.102Z,32.03
2018-07-23T04:49:11.018Z,35.43
2018-07-23T04:51:40.930Z,30.92
2018-07-23T04:54:10.854Z,34.83
2018-07-23T04:56:40.980Z,32.88
2018-07-23T04:59:10.867Z,34.60
2018-07-23T05:01:40.714Z,33.48
2018-07-23T05:04:10.463Z,32.30
2018-07-23T05:06:40.235Z,32.38
2018-07-23T05:09:11.614Z,30.02
2018-07-23T05:11:41.830Z,34.67
2018-07-23T05:14:11.931Z,34.08
2018-07-23T05:16:41.722Z,28.25
2018-07-23T05:19:11.752Z,33.05
2018-07-23T05:21:41.515Z,30.12
2018-07-23T05:24:11.281Z,35.65
2018-07-23T05:26:41.042Z,34.80
2018-07-23T05:29:10.791Z,35.83
2018-07-23T05:31:40.550Z,33.75
2018-07-23T05:34:10.555Z,37.30
2018-07-23T05:36:40.453Z,28.70
2018-07-23T05:39:11.274Z,36.88
2018-07-23T05:41:41.194Z,34.43
2018-07-23T05:44:10.896Z,30.12
2018-07-23T05:46:41.442Z,30.20
2018-07-23T05:49:11.203Z,37.17
2018-07-23T05:51:41.006Z,37.93
2018-07-23T05:54:10.690Z,38.92
2018-07-23T05:56:40.431Z,38.78
2018-07-23T05:59:10.135Z,35.92
2018-07-23T06:01:39.856Z,37.60
2018-07-23T06:04:09.571Z,31.30
2018-07-23T06:06:39.312Z,36.60
2018-07-23T06:09:10.335Z,38.02
2018-07-23T06:11:40.057Z,31.40
2018-07-23T06:14:09.839Z,36.42
2018-07-23T06:16:40.169Z,32.93
2018-07-23T06:19:10.224Z,38.42
2018-07-23T06:21:40.154Z,34.05
2018-07-23T06:24:09.854Z,37.42
2018-07-23T06:26:39.614Z,34.20
2018-07-23T06:29:09.314Z,32.35
2018-07-23T06:31:39.438Z,31.68
2018-07-23T06:34:09.481Z,31.20
2018-07-23T06:36:39.584Z,32.80
2018-07-23T06:39:10.951Z,31.95
2018-07-23T06:41:47.090Z,36.88
2018-07-23T06:44:16.812Z,31.52
2018-07-23T06:46:46.562Z,33.98
2018-07-23T06:49:16.295Z,36.75
2018-07-23T06:51:46.057Z,35.58
2018-07-23T06:54:15.786Z,36.55
2018-07-23T06:56:45.620Z,36.77
2018-07-23T06:59:15.566Z,37.40
2018-07-23T07:01:46.687Z,36.53
2018-07-23T07:04:16.394Z,37.78
2018-07-23T07:06:46.167Z,31.60
2018-07-23T07:09:15.920Z,34.10
2018-07-23T07:11:45.702Z,35.15
2018-07-23T07:14:15.550Z,34.78
2018-07-23T07:16:49.899Z,32.85
2018-07-23T07:19:22.784Z,32.38
2018-07-23T07:21:54.855Z,34.65
2018-07-23T07:24:26.272Z,32.42
2018-07-23T07:26:56.246Z,32.88
2018-07-23T07:29:26.222Z,22.93
2018-07-23T07:31:57.655Z,30.62
2018-07-23T07:34:28.103Z,30.17
2018-07-23T07:37:09.944Z,30.27
2018-07-23T07:39:52.576Z,29.80
2018-07-23T07:42:52.489Z,29.40
2018-07-23T07:48:28.136Z,29.92
2018-07-23T07:51:04.722Z,29.60
2018-07-23T07:53:41.719Z,26.73
2018-07-23T07:56:25.092Z,27.15
2018-07-23T07:59:09.339Z,26.77
2018-07-23T08:02:15.163Z,25.87
2018-07-23T08:05:01.742Z,23.70
2018-07-23T08:07:38.985Z,25.25
2018-07-23T08:10:17.546Z,24.43
2018-07-23T08:12:52.917Z,24.25
2018-07-23T08:15:25.775Z,22.55
2018-07-23T08:18:02.151Z,24.35
2018-07-23T08:20:34.528Z,26.00
2018-07-23T08:23:12.886Z,25.40
2018-07-23T08:25:50.076Z,25.55
2018-07-23T08:28:26.126Z,25.15
2018-07-23T08:30:59.945Z,24.30
2018-07-23T08:33:31.018Z,22.95
2018-07-23T08:36:01.776Z,23.42
2018-07-23T08:38:33.595Z,23.98
2018-07-23T08:41:07.216Z,23.30
2018-07-23T08:43:38.434Z,22.52
2018-07-23T08:46:10.331Z,21.73
2018-07-23T08:48:40.692Z,21.57
2018-07-23T08:51:10.640Z,22.17
2018-07-23T08:53:40.554Z,21.82
2018-07-23T08:56:10.398Z,20.45
2018-07-23T08:58:40.304Z,19.35
2018-07-23T09:01:10.246Z,20.43
2018-07-23T09:03:40.032Z,20.48
2018-07-23T09:06:09.759Z,19.65
2018-07-23T09:08:39.517Z,20.60
2018-07-23T09:11:09.450Z,19.10
2018-07-23T09:13:39.182Z,21.12
2018-07-23T09:16:08.935Z,18.40
2018-07-23T09:18:38.658Z,20.75
2018-07-23T09:21:08.394Z,17.37
2018-07-23T09:23:39.335Z,18.12
2018-07-23T09:26:09.658Z,17.75
2018-07-23T09:28:39.479Z,17.37
2018-07-23T09:31:09.451Z,16.23
2018-07-23T09:33:39.622Z,16.40
2018-07-23T09:36:09.875Z,16.67
2018-07-23T09:38:39.668Z,17.87
2018-07-23T09:41:12.666Z,17.23
2018-07-23T09:43:47.064Z,16.30
2018-07-23T09:46:17.759Z,14.73
2018-07-23T09:48:52.388Z,15.45
2018-07-23T09:51:24.829Z,16.48
2018-07-23T09:54:06.843Z,15.45
2018-07-23T09:56:38.823Z,15.72
2018-07-23T09:59:13.806Z,15.63
2018-07-23T10:01:46.873Z,16.27
2018-07-23T10:04:18.365Z,16.00
2018-07-23T10:06:52.393Z,15.68
2018-07-23T10:09:23.211Z,17.17
2018-07-23T10:11:53.230Z,16.45
2018-07-23T10:14:22.988Z,14.45
2018-07-23T10:16:52.922Z,14.53
2018-07-23T10:19:23.262Z,16.23
2018-07-23T10:21:58.181Z,15.78
2018-07-23T10:24:28.450Z,14.95
2018-07-23T10:26:59.027Z,13.45
2018-07-23T10:29:29.338Z,13.35
2018-07-23T10:32:03.567Z,12.45
2018-07-23T10:34:34.207Z,13.65
2018-07-23T10:37:04.036Z,14.38
2018-07-23T10:39:42.236Z,14.03
2018-07-23T10:42:13.581Z,12.98
2018-07-23T10:44:45.989Z,13.22
2018-07-23T10:47:15.898Z,14.55
2018-07-23T10:49:46.263Z,13.72
2018-07-23T10:52:19.731Z,15.05
2018-07-23T10:54:50.492Z,14.80
2018-07-23T10:57:20.263Z,12.05
2018-07-23T10:59:50.023Z,11.60
2018-07-23T11:02:19.815Z,12.28
2018-07-23T11:04:52.029Z,11.93
2018-07-23T11:07:22.621Z,12.50
2018-07-23T11:09:52.678Z,10.60
2018-07-23T11:12:25.219Z,11.45
2018-07-23T11:14:56.892Z,10.98
2018-07-23T11:17:27.267Z,12.23
2018-07-23T11:19:57.230Z,11.70
2018-07-23T11:22:27.035Z,10.82
2018-07-23T11:24:57.088Z,10.00
2018-07-23T11:27:26.834Z,11.18
2018-07-23T11:29:56.790Z,10.32
2018-07-23T11:32:26.467Z,11.20
2018-07-23T11:34:56.431Z,10.78
2018-07-23T11:37:26.367Z,9.55
2018-07-23T11:39:58.663Z,9.33
2018-07-23T11:42:28.787Z,9.50
2018-07-23T11:44:58.946Z,10.10
2018-07-23T11:47:28.698Z,10.00
2018-07-23T11:49:58.547Z,10.10
2018-07-23T11:52:28.402Z,9.85
2018-07-23T11:54:58.234Z,10.10
2018-07-23T11:57:28.075Z,9.15
2018-07-23T11:59:57.916Z,8.73
2018-07-23T12:02:27.722Z,8.30
2018-07-23T12:04:57.611Z,8.53
2018-07-23T12:07:27.550Z,8.20
2018-07-23T12:09:57.503Z,7.83
2018-07-23T12:12:27.494Z,8.03
2018-07-23T12:14:57.351Z,8.78
2018-07-23T12:17:27.445Z,8.03
2018-07-23T12:19:57.447Z,9.70
2018-07-23T12:22:27.207Z,9.45
2018-07-23T12:24:57.242Z,8.80
2018-07-23T12:27:27.274Z,9.00
2018-07-23T12:29:57.239Z,8.50
2018-07-23T12:32:27.114Z,9.43
2018-07-23T12:34:57.406Z,8.73
2018-07-23T12:37:27.594Z,8.60
2018-07-23T12:39:57.594Z,9.20
2018-07-23T12:42:27.559Z,8.43
2018-07-23T12:44:57.288Z,8.35
2018-07-23T12:47:27.437Z,8.40
2018-07-23T12:49:57.502Z,9.68
2018-07-23T12:52:28.950Z,8.90
2018-07-23T12:54:58.902Z,9.18
2018-07-23T12:57:28.880Z,9.03
2018-07-23T12:59:58.820Z,8.93
2018-07-23T13:02:30.504Z,8.08
2018-07-23T13:05:03.827Z,9.35
2018-07-23T13:07:34.459Z,9.00
2018-07-23T13:10:07.211Z,8.33
2018-07-23T13:12:37.327Z,9.98
2018-07-23T13:15:08.370Z,8.45
2018-07-23T13:17:38.172Z,8.95
2018-07-23T13:20:08.023Z,9.58
2018-07-23T13:22:38.121Z,8.90
2018-07-23T13:25:08.787Z,8.13
2018-07-23T13:27:38.894Z,8.33
2018-07-23T13:30:09.312Z,8.48
2018-07-23T13:32:39.245Z,8.55
2018-07-23T13:35:12.968Z,8.88
2018-07-23T13:37:43.312Z,8.95
2018-07-23T13:40:13.767Z,9.00
2018-07-23T13:42:44.698Z,8.90
2018-07-23T13:45:14.430Z,8.85
2018-07-23T13:47:44.622Z,8.88
2018-07-23T13:50:14.635Z,9.03
2018-07-23T13:52:45.535Z,8.85
2018-07-23T13:55:15.996Z,9.35
2018-07-23T13:57:45.877Z,9.20
2018-07-23T14:00:15.802Z,9.15
2018-07-23T14:02:45.682Z,9.18
2018-07-23T14:05:15.576Z,9.40
2018-07-23T14:07:45.450Z,8.63
2018-07-23T14:10:15.234Z,9.85
2018-07-23T14:12:45.192Z,10.13
2018-07-23T14:15:15.109Z,10.25
2018-07-23T14:17:45.138Z,7.97
2018-07-23T14:20:15.054Z,8.55
2018-07-23T14:22:44.958Z,8.55
2018-07-23T14:25:14.807Z,8.73
2018-07-23T14:27:44.739Z,9.48
2018-07-23T14:30:14.504Z,8.00
2018-07-23T14:32:44.459Z,9.00
2018-07-23T14:35:14.425Z,8.13
2018-07-23T14:37:44.296Z,8.28
2018-07-23T14:40:14.126Z,8.70
2018-07-23T14:42:43.976Z,8.18
2018-07-23T14:45:13.755Z,7.72
2018-07-23T14:47:43.897Z,9.28
2018-07-23T14:50:13.615Z,8.45
2018-07-23T14:52:43.346Z,8.30
2018-07-23T14:55:13.091Z,10.50
2018-07-23T14:57:42.846Z,10.08
2018-07-23T15:00:12.743Z,9.73
2018-07-23T15:02:42.486Z,9.85
2018-07-23T15:05:12.568Z,8.30
2018-07-23T15:07:43.360Z,9.05
2018-07-23T15:10:14.681Z,8.75
2018-07-23T15:12:44.421Z,10.13
2018-07-23T15:15:14.103Z,8.95
2018-07-23T15:17:45.872Z,8.53
2018-07-23T15:20:15.574Z,7.47
2018-07-23T15:22:45.800Z,8.33
2018-07-23T15:25:16.536Z,7.72
2018-07-23T15:27:47.000Z,7.95
2018-07-23T15:30:16.724Z,7.78
2018-07-23T15:32:46.418Z,8.05
2018-07-23T15:35:16.094Z,7.97
2018-07-23T15:37:45.997Z,8.28
2018-07-23T15:40:15.613Z,7.55
2018-07-23T15:42:45.275Z,8.35
2018-07-23T15:45:15.183Z,8.83
2018-07-23T15:47:45.222Z,8.00
2018-07-23T15:50:14.903Z,8.45
2018-07-23T15:52:44.546Z,8.28
2018-07-23T15:55:14.246Z,8.15
2018-07-23T15:57:43.894Z,8.33
2018-07-23T16:00:13.586Z,8.68
2018-07-23T16:02:43.226Z,8.08
2018-07-23T16:05:13.292Z,8.33
2018-07-23T16:07:43.086Z,8.15
2018-07-23T16:10:12.750Z,9.05
2018-07-23T16:12:42.389Z,8.90
2018-07-23T16:15:12.062Z,8.68
2018-07-23T16:17:41.743Z,8.90
2018-07-23T16:20:11.402Z,8.90
2018-07-23T16:22:41.045Z,8.83
2018-07-23T16:25:10.890Z,8.55
2018-07-23T16:27:40.566Z,9.90
2018-07-23T16:30:10.639Z,10.35
2018-07-23T16:32:40.695Z,9.65
2018-07-23T16:35:11.272Z,9.60
2018-07-23T16:37:41.305Z,9.80
2018-07-23T16:40:11.054Z,9.98
2018-07-23T16:42:40.718Z,9.50
2018-07-23T16:45:10.431Z,9.58
2018-07-23T16:47:40.114Z,9.88
2018-07-23T16:50:10.606Z,9.53
2018-07-23T16:52:40.979Z,9.73
2018-07-23T16:55:10.700Z,9.45
2018-07-23T16:57:40.369Z,9.95
2018-07-23T17:00:10.435Z,9.60
2018-07-23T17:02:40.109Z,9.80
2018-07-23T17:05:09.995Z,9.38
2018-07-23T17:07:39.695Z,9.85
2018-07-23T17:10:09.461Z,9.93
2018-07-23T17:12:39.578Z,9.40
2018-07-23T17:15:10.094Z,9.50
2018-07-23T17:17:39.774Z,9.63
2018-07-23T17:20:09.522Z,9.83
2018-07-23T17:22:39.234Z,9.70
2018-07-23T17:25:08.954Z,9.83
2018-07-23T17:27:39.111Z,9.33
2018-07-23T17:30:09.495Z,9.80
2018-07-23T17:32:39.846Z,11.57
2018-07-23T17:35:09.886Z,12.05
2018-07-23T17:37:40.515Z,9.95
2018-07-23T17:40:10.399Z,10.28
2018-07-23T17:42:40.464Z,11.03
2018-07-23T17:45:10.382Z,11.00
2018-07-23T17:47:40.234Z,10.63
2018-07-23T17:50:10.154Z,10.15
2018-07-23T17:52:39.914Z,10.55
2018-07-23T17:55:10.015Z,10.95
2018-07-23T17:57:39.963Z,11.73
2018-07-23T18:00:10.055Z,10.53
2018-07-23T18:02:39.870Z,11.35
2018-07-23T18:05:10.254Z,10.93
2018-07-23T18:07:40.030Z,11.43
2018-07-23T18:10:10.187Z,11.18
2018-07-23T18:12:39.978Z,11.68
2018-07-23T18:15:09.722Z,11.65
2018-07-23T18:17:39.902Z,12.43
2018-07-23T18:20:09.894Z,12.37
2018-07-23T18:22:40.486Z,11.85
2018-07-23T18:25:11.161Z,11.83
2018-07-23T18:27:41.302Z,12.40
2018-07-23T18:30:11.080Z,11.95
2018-07-23T18:32:40.794Z,12.55
2018-07-23T18:35:10.559Z,12.75
2018-07-23T18:37:40.416Z,11.83
2018-07-23T18:40:10.742Z,13.30
2018-07-23T18:42:41.214Z,12.60
2018-07-23T18:45:11.886Z,12.80
2018-07-23T18:47:42.618Z,11.88
2018-07-23T18:50:12.655Z,12.10
2018-07-23T18:52:42.801Z,11.90
2018-07-23T18:55:12.688Z,12.80
2018-07-23T18:57:42.578Z,13.25
2018-07-23T19:00:12.387Z,12.47
2018-07-23T19:02:43.122Z,12.47
2018-07-23T19:05:13.238Z,12.40
2018-07-23T19:07:43.382Z,12.65
2018-07-23T19:10:13.803Z,12.43
2018-07-23T19:12:43.663Z,11.80
2018-07-23T19:15:13.586Z,12.23
2018-07-23T19:17:43.463Z,11.80
2018-07-23T19:20:13.715Z,11.83
2018-07-23T19:22:45.130Z,11.68
2018-07-23T19:25:14.983Z,12.18
2018-07-23T19:27:49.166Z,11.48
2018-07-23T19:30:19.071Z,12.13
2018-07-23T19:32:49.182Z,11.75
2018-07-23T19:35:19.290Z,11.35
2018-07-23T19:37:49.322Z,12.07
2018-07-23T19:40:19.398Z,11.57
2018-07-23T19:42:56.869Z,11.80
2018-07-23T19:45:36.226Z,11.55
2018-07-23T19:48:08.549Z,11.85
2018-07-23T19:50:38.901Z,11.05
2018-07-23T19:53:10.040Z,11.50
2018-07-23T19:55:40.210Z,11.50
2018-07-23T19:58:10.078Z,12.23
2018-07-23T20:00:39.990Z,10.85
2018-07-23T20:03:09.866Z,11.18
2018-07-23T20:05:39.958Z,11.12
2018-07-23T20:08:10.075Z,11.05
2018-07-23T20:10:41.658Z,10.60
2018-07-23T20:13:14.358Z,11.00
2018-07-23T20:15:45.510Z,11.18
2018-07-23T20:18:15.366Z,11.22
2018-07-23T20:20:45.262Z,10.72
2018-07-23T20:23:15.466Z,11.33
2018-07-23T20:25:45.314Z,10.68
2018-07-23T20:28:15.625Z,10.78
2018-07-23T20:30:45.819Z,11.33
2018-07-23T20:33:15.674Z,11.15
2018-07-23T20:35:45.598Z,11.10
2018-07-23T20:38:18.470Z,11.33
2018-07-23T20:40:54.194Z,10.38
2018-07-23T20:43:26.603Z,11.20
2018-07-23T20:46:03.050Z,10.50
2018-07-23T20:48:35.337Z,10.63
2018-07-23T20:51:05.494Z,11.43
2018-07-23T20:53:38.562Z,10.58
2018-07-23T20:56:09.680Z,11.10
2018-07-23T20:58:39.965Z,10.93
2018-07-23T21:01:15.934Z,10.98
2018-07-23T21:03:46.376Z,11.20
2018-07-23T21:06:18.741Z,10.98
2018-07-23T21:08:51.350Z,10.95
2018-07-23T21:11:25.059Z,11.18
2018-07-23T21:14:01.287Z,11.50
2018-07-23T21:16:30.842Z,12.40
2018-07-23T21:19:00.554Z,11.78
2018-07-23T21:21:30.619Z,11.80
2018-07-23T21:24:00.362Z,11.05
2018-07-23T21:26:30.043Z,10.95
2018-07-23T21:28:59.797Z,10.78
2018-07-23T21:31:29.526Z,10.98
2018-07-23T21:34:01.359Z,11.20
2018-07-23T21:36:31.641Z,10.80
2018-07-23T21:39:04.646Z,10.65
2018-07-23T21:41:35.496Z,11.03
2018-07-23T21:44:05.438Z,11.33
2018-07-23T21:46:35.162Z,10.63
2018-07-23T21:49:04.919Z,11.08
2018-07-23T21:51:34.720Z,11.22
2018-07-23T21:54:04.531Z,11.08
2018-07-23T21:56:34.474Z,12.03
2018-07-23T21:59:09.745Z,11.03
2018-07-23T22:01:40.259Z,11.10
2018-07-23T22:04:10.662Z,10.70
2018-07-23T22:06:40.391Z,11.25
2018-07-23T22:09:10.129Z,10.93
2018-07-23T22:11:47.642Z,11.73
2018-07-23T22:14:17.390Z,11.60
2018-07-23T22:16:47.099Z,11.18
2018-07-23T22:19:16.843Z,11.65
2018-07-23T22:21:46.576Z,11.20
2018-07-23T22:24:18.707Z,10.63
2018-07-23T22:26:48.495Z,10.40
2018-07-23T22:29:18.630Z,10.80
2018-07-23T22:31:48.346Z,11.35
2018-07-23T22:34:20.118Z,11.50
2018-07-23T22:36:51.943Z,12.88
2018-07-23T22:39:23.672Z,13.10
2018-07-23T22:41:53.542Z,14.03
2018-07-23T22:44:23.546Z,15.48
2018-07-23T22:46:53.226Z,15.30
2018-07-23T22:49:22.925Z,16.20
2018-07-23T22:51:55.219Z,15.88
2018-07-23T22:54:25.130Z,15.18
2018-07-23T22:56:56.747Z,15.32
2018-07-23T22:59:28.100Z,13.95
2018-07-23T23:01:59.239Z,13.78
2018-07-23T23:04:28.930Z,15.00
2018-07-23T23:07:00.734Z,15.00
2018-07-23T23:09:32.697Z,13.65
2018-07-23T23:12:09.266Z,14.15
2018-07-23T23:14:38.962Z,13.45
2018-07-23T23:17:11.310Z,13.48
2018-07-23T23:19:41.907Z,12.80
2018-07-23T23:22:11.636Z,12.40
2018-07-23T23:24:41.345Z,12.78
2018-07-23T23:27:11.032Z,12.85
2018-07-23T23:29:40.727Z,12.28
2018-07-23T23:32:10.404Z,12.45
2018-07-23T23:34:40.094Z,14.35
2018-07-23T23:37:09.770Z,14.60
2018-07-23T23:39:39.490Z,15.85
2018-07-23T23:42:09.194Z,15.05
2018-07-23T23:44:39.530Z,15.78
2018-07-23T23:47:09.875Z,15.90
2018-07-23T23:49:39.694Z,16.27
2018-07-23T23:52:09.126Z,17.37
2018-07-23T23:54:38.772Z,16.40
2018-07-23T23:57:08.604Z,15.08
2018-07-23T23:59:38.883Z,15.68
